createdAt,value
2024-04-23T00:03:23.426Z,99186.16
2024-04-23T00:06:11.331Z,99182.14
2024-04-23T00:08:59.636Z,99175.17
2024-04-23T00:11:47.553Z,99175.35
2024-04-23T00:14:35.826Z,99174.70
2024-04-23T00:17:23.695Z,99172.02
2024-04-23T00:20:11.614Z,99167.91
2024-04-23T00:22:59.314Z,99164.85
2024-04-23T00:25:47.233Z,99165.09
2024-04-23T00:28:35.043Z,99161.98
2024-04-23T00:31:23.719Z,99160.37
2024-04-23T00:34:11.695Z,99153.36
2024-04-23T00:37:00.821Z,99152.70
2024-04-23T00:39:49.128Z,99154.45
2024-04-23T00:42:36.840Z,99153.58
2024-04-23T00:45:35.148Z,99142.67
2024-04-23T00:48:22.664Z,99142.81
2024-04-23T00:51:10.413Z,99145.88
2024-04-23T00:53:59.218Z,99141.70
2024-04-23T00:56:47.219Z,99145.58
2024-04-23T00:59:35.757Z,99141.95
2024-04-23T01:02:23.928Z,99142.45
2024-04-23T01:05:12.117Z,99139.48
2024-04-23T01:08:00.148Z,99138.05
2024-04-23T01:10:47.985Z,99147.86
2024-04-23T01:13:36.031Z,99145.92
2024-04-23T01:16:29.773Z,99147.70
2024-04-23T01:19:36.280Z,99150.17
2024-04-23T01:22:32.175Z,99144.24
2024-04-23T01:25:23.460Z,99144.71
2024-04-23T01:28:15.297Z,99144.73
2024-04-23T01:31:08.666Z,99147.02
2024-04-23T01:33:58.204Z,99149.20
2024-04-23T01:36:45.689Z,99151.58
2024-04-23T01:39:34.824Z,99153.54
2024-04-23T01:42:23.777Z,99153.17
2024-04-23T01:45:16.616Z,99154.64
2024-04-23T01:48:07.354Z,99156.73
2024-04-23T01:50:55.398Z,99155.37
2024-04-23T01:53:43.112Z,99151.55
2024-04-23T01:56:30.774Z,99147.48
2024-04-23T01:59:18.692Z,99143.02
2024-04-23T02:02:07.234Z,99142.64
2024-04-23T02:04:55.721Z,99138.09
2024-04-23T02:07:44.796Z,99138.10
2024-04-23T02:10:32.702Z,99132.86
2024-04-23T02:13:20.841Z,99131.38
2024-04-23T02:16:08.903Z,99130.19
2024-04-23T02:18:56.816Z,99134.34
2024-04-23T02:21:44.733Z,99137.48
2024-04-23T02:24:32.645Z,99133.67
2024-04-23T02:27:20.631Z,99132.03
2024-04-23T02:30:08.825Z,99131.54
2024-04-23T02:32:56.916Z,99133.20
2024-04-23T02:35:44.561Z,99127.93
2024-04-23T02:38:32.831Z,99123.34
2024-04-23T02:41:20.475Z,99119.55
2024-04-23T02:44:08.317Z,99109.17
2024-04-23T02:46:56.230Z,99108.96
2024-04-23T02:49:44.367Z,99107.74
2024-04-23T02:52:33.243Z,99103.92
2024-04-23T02:55:22.116Z,99104.73
2024-04-23T02:58:10.038Z,99102.70
2024-04-23T03:00:57.721Z,99102.30
2024-04-23T03:03:46.387Z,99097.56
2024-04-23T03:06:34.159Z,99097.19
2024-04-23T03:09:21.890Z,99090.02
2024-04-23T03:12:10.036Z,99088.34
2024-04-23T03:14:58.450Z,99090.29
2024-04-23T03:17:46.718Z,99095.02
2024-04-23T03:20:35.354Z,99090.75
2024-04-23T03:23:23.372Z,99085.33
2024-04-23T03:26:11.248Z,99078.38
2024-04-23T03:28:58.928Z,99076.02
2024-04-23T03:31:47.711Z,99075.29
2024-04-23T03:34:35.706Z,99075.28
2024-04-23T03:37:23.382Z,99076.23
2024-04-23T03:40:11.383Z,99075.84
2024-04-23T03:42:58.885Z,99078.55
2024-04-23T03:45:46.755Z,99082.81
2024-04-23T03:48:34.920Z,99086.45
2024-04-23T03:51:22.809Z,99087.05
2024-04-23T03:54:11.075Z,99088.71
2024-04-23T03:56:59.253Z,99091.02
2024-04-23T03:59:47.254Z,99089.89
2024-04-23T04:02:53.590Z,99086.13
2024-04-23T04:06:00.549Z,99088.98
2024-04-23T04:08:48.826Z,99087.98
2024-04-23T04:11:38.357Z,99084.48
2024-04-23T04:14:26.308Z,99075.20
2024-04-23T04:17:14.215Z,99074.02
2024-04-23T04:20:02.093Z,99075.87
2024-04-23T04:22:49.924Z,99079.92
2024-04-23T04:25:37.954Z,99076.63
2024-04-23T04:28:25.864Z,99073.44
2024-04-23T04:31:13.901Z,99068.95
2024-04-23T04:34:01.668Z,99068.85
2024-04-23T04:36:49.452Z,99063.27
2024-04-23T04:39:38.804Z,99064.77
2024-04-23T04:42:26.589Z,99064.17
2024-04-23T04:45:14.230Z,99063.88
2024-04-23T04:48:02.124Z,99063.80
2024-04-23T04:50:50.325Z,99063.67
2024-04-23T04:53:38.277Z,99067.41
2024-04-23T04:56:28.932Z,99069.33
2024-04-23T04:59:16.900Z,99066.14
2024-04-23T05:02:04.916Z,99067.04
2024-04-23T05:04:55.440Z,99068.38
2024-04-23T05:07:44.750Z,99065.66
2024-04-23T05:10:32.441Z,99066.10
2024-04-23T05:13:20.142Z,99065.52
2024-04-23T05:16:08.330Z,99062.39
2024-04-23T05:18:56.257Z,99064.86
2024-04-23T05:21:44.005Z,99063.27
2024-04-23T05:24:32.050Z,99063.09
2024-04-23T05:27:19.986Z,99061.83
2024-04-23T05:30:08.835Z,99062.00
2024-04-23T05:32:56.563Z,99059.52
2024-04-23T05:35:44.728Z,99055.95
2024-04-23T05:38:32.782Z,99057.90
2024-04-23T05:41:20.673Z,99057.39
2024-04-23T05:44:08.428Z,99057.20
2024-04-23T05:46:56.237Z,99054.05
2024-04-23T05:50:41.151Z,99052.34
2024-04-23T05:54:25.484Z,99050.04
2024-04-23T05:57:13.150Z,99049.96
2024-04-23T06:00:01.095Z,99047.11
2024-04-23T06:02:48.989Z,99050.33
2024-04-23T06:05:37.119Z,99055.06
2024-04-23T06:08:27.705Z,99054.66
2024-04-23T06:11:16.164Z,99057.30
2024-04-23T06:14:10.350Z,99053.89
2024-04-23T06:17:28.727Z,99055.80
2024-04-23T06:20:24.090Z,99057.81
2024-04-23T06:23:28.903Z,99058.53
2024-04-23T06:26:17.025Z,99057.21
2024-04-23T06:29:04.435Z,99057.39
2024-04-23T06:31:52.549Z,99055.41
2024-04-23T06:34:41.509Z,99057.39
2024-04-23T06:37:29.628Z,99064.79
2024-04-23T06:40:17.916Z,99060.02
2024-04-23T06:43:06.007Z,99058.31
2024-04-23T06:45:54.662Z,99053.66
2024-04-23T06:48:42.331Z,99055.27
2024-04-23T06:51:30.219Z,99047.87
2024-04-23T06:54:18.208Z,99049.09
2024-04-23T06:57:08.468Z,99048.45
2024-04-23T06:59:56.520Z,99045.55
2024-04-23T07:02:44.889Z,99040.68
2024-04-23T07:05:32.987Z,99037.91
2024-04-23T07:08:20.716Z,99029.82
2024-04-23T07:11:09.955Z,99034.73
2024-04-23T07:13:58.343Z,99032.89
2024-04-23T07:16:47.516Z,99032.23
2024-04-23T07:19:35.469Z,99033.38
2024-04-23T07:22:23.335Z,99030.18
2024-04-23T07:25:11.095Z,99031.79
2024-04-23T07:27:59.249Z,99033.05
2024-04-23T07:30:50.006Z,99030.90
2024-04-23T07:33:38.025Z,99021.55
2024-04-23T07:36:26.394Z,99019.99
2024-04-23T07:39:14.937Z,99016.13
2024-04-23T07:42:03.476Z,99014.96
2024-04-23T07:44:51.841Z,99008.91
2024-04-23T07:47:40.253Z,99009.79
2024-04-23T07:50:29.415Z,99001.06
2024-04-23T07:53:17.316Z,98996.40
2024-04-23T07:56:05.770Z,98996.23
2024-04-23T07:58:53.665Z,98993.74
2024-04-23T08:01:41.742Z,98990.48
2024-04-23T08:04:30.112Z,98989.00
2024-04-23T08:07:17.905Z,98984.89
2024-04-23T08:10:06.374Z,98984.52
2024-04-23T08:12:55.440Z,98977.35
2024-04-23T08:15:43.150Z,98979.05
2024-04-23T08:18:30.838Z,98970.94
2024-04-23T08:21:19.035Z,98970.55
2024-04-23T08:24:08.209Z,98963.23
2024-04-23T08:26:55.934Z,98964.68
2024-04-23T08:29:43.690Z,98959.73
2024-04-23T08:32:31.930Z,98955.68
2024-04-23T08:35:19.983Z,98955.23
2024-04-23T08:38:07.733Z,98948.35
2024-04-23T08:40:56.150Z,98946.32
2024-04-23T08:44:09.662Z,98943.38
2024-04-23T08:46:57.962Z,98933.02
2024-04-23T08:49:46.872Z,98930.33
2024-04-23T08:52:34.602Z,98923.39
2024-04-23T08:55:23.897Z,98919.36
2024-04-23T08:58:14.201Z,98922.96
2024-04-23T09:01:03.542Z,98922.88
2024-04-23T09:03:56.108Z,98921.89
2024-04-23T09:06:44.608Z,98916.16
2024-04-23T09:09:32.993Z,98914.73
2024-04-23T09:12:21.056Z,98905.46
2024-04-23T09:15:09.406Z,98906.91
2024-04-23T09:17:58.894Z,98897.55
2024-04-23T09:20:47.125Z,98898.80
2024-04-23T09:23:35.097Z,98899.98
2024-04-23T09:26:25.916Z,98900.83
2024-04-23T09:29:14.517Z,98902.69
2024-04-23T09:32:03.660Z,98898.58
2024-04-23T09:34:56.176Z,98891.72
2024-04-23T09:37:50.994Z,98882.78
2024-04-23T09:40:42.933Z,98878.39
2024-04-23T09:43:31.674Z,98870.10
2024-04-23T09:46:19.989Z,98863.18
2024-04-23T09:49:07.741Z,98860.77
2024-04-23T09:51:56.804Z,98857.05
2024-04-23T09:54:45.171Z,98854.81
2024-04-23T09:57:35.742Z,98849.15
2024-04-23T10:00:23.399Z,98848.96
2024-04-23T10:03:16.958Z,98842.45
2024-04-23T10:06:08.350Z,98833.61
2024-04-23T10:09:07.066Z,98829.80
2024-04-23T10:12:07.349Z,98818.11
2024-04-23T10:15:09.886Z,98813.00
2024-04-23T10:18:06.629Z,98806.23
2024-04-23T10:20:56.449Z,98798.28
2024-04-23T10:23:45.083Z,98804.77
2024-04-23T10:26:34.138Z,98810.13
2024-04-23T10:29:23.086Z,98800.90
2024-04-23T10:32:12.983Z,98798.94
2024-04-23T10:35:04.460Z,98791.43
2024-04-23T10:37:54.514Z,98788.90
2024-04-23T10:40:52.283Z,98783.48
2024-04-23T10:43:47.062Z,98778.79
2024-04-23T10:46:35.639Z,98773.61
2024-04-23T10:49:27.104Z,98767.05
2024-04-23T10:52:18.992Z,98758.29
2024-04-23T10:55:14.681Z,98747.80
2024-04-23T10:58:03.327Z,98745.52
2024-04-23T11:01:01.097Z,98739.73
2024-04-23T11:03:56.850Z,98738.84
2024-04-23T11:06:45.073Z,98739.38
2024-04-23T11:09:43.694Z,98731.92
2024-04-23T11:12:31.416Z,98728.77
2024-04-23T11:15:19.777Z,98718.57
2024-04-23T11:18:20.145Z,98720.38
2024-04-23T11:21:10.207Z,98716.42
2024-04-23T11:24:04.986Z,98716.27
2024-04-23T11:26:53.210Z,98707.35
2024-04-23T11:29:46.342Z,98703.73
2024-04-23T11:32:34.385Z,98700.17
2024-04-23T11:35:26.153Z,98690.98
2024-04-23T11:38:13.696Z,98685.73
2024-04-23T11:41:18.766Z,98678.80
2024-04-23T11:44:07.372Z,98673.66
2024-04-23T11:46:56.040Z,98674.13
2024-04-23T11:49:43.656Z,98669.56
2024-04-23T11:52:33.243Z,98669.36
2024-04-23T11:55:21.097Z,98669.71
2024-04-23T11:58:09.312Z,98662.16
2024-04-23T12:00:57.590Z,98650.44
2024-04-23T12:03:45.564Z,98650.00
2024-04-23T12:06:33.925Z,98650.74
2024-04-23T12:09:23.451Z,98646.27
2024-04-23T12:12:11.780Z,98641.23
2024-04-23T12:14:59.298Z,98638.23
2024-04-23T12:17:47.194Z,98634.33
2024-04-23T12:20:38.294Z,98623.18
2024-04-23T12:23:26.522Z,98616.88
2024-04-23T12:26:19.411Z,98612.57
2024-04-23T12:29:07.557Z,98603.17
2024-04-23T12:32:02.712Z,98601.07
2024-04-23T12:34:57.757Z,98585.52
2024-04-23T12:37:45.901Z,98581.11
2024-04-23T12:40:35.354Z,98577.05
2024-04-23T12:43:29.146Z,98581.45
2024-04-23T12:46:18.826Z,98578.91
2024-04-23T12:49:07.127Z,98578.27
2024-04-23T12:51:55.274Z,98574.84
2024-04-23T12:54:43.629Z,98568.33
2024-04-23T12:57:32.224Z,98562.83
2024-04-23T13:00:20.239Z,98560.17
2024-04-23T13:03:08.402Z,98551.64
2024-04-23T13:05:57.703Z,98547.10
2024-04-23T13:08:47.231Z,98544.81
2024-04-23T13:11:35.421Z,98533.59
2024-04-23T13:14:23.240Z,98523.46
2024-04-23T13:17:11.058Z,98522.48
2024-04-23T13:20:01.287Z,98516.51
2024-04-23T13:22:50.408Z,98516.69
2024-04-23T13:25:40.334Z,98513.45
2024-04-23T13:28:28.337Z,98506.49
2024-04-23T13:31:15.925Z,98502.44
2024-04-23T13:34:03.708Z,98500.50
2024-04-23T13:36:51.779Z,98503.19
2024-04-23T13:39:40.145Z,98496.05
2024-04-23T13:42:28.068Z,98495.80
2024-04-23T13:45:15.667Z,98494.06
2024-04-23T13:48:04.026Z,98493.45
2024-04-23T13:50:52.502Z,98491.81
2024-04-23T13:53:39.995Z,98486.02
2024-04-23T13:56:27.739Z,98482.63
2024-04-23T13:59:18.821Z,98483.00
2024-04-23T14:02:06.613Z,98485.00
2024-04-23T14:04:56.796Z,98477.73
2024-04-23T14:07:44.837Z,98467.91
2024-04-23T14:10:33.312Z,98464.45
2024-04-23T14:13:20.932Z,98457.17
2024-04-23T14:16:13.130Z,98451.91
2024-04-23T14:19:00.985Z,98443.25
2024-04-23T14:21:49.958Z,98437.80
2024-04-23T14:24:38.246Z,98428.58
2024-04-23T14:27:26.127Z,98427.52
2024-04-23T14:30:14.828Z,98421.05
2024-04-23T14:33:03.053Z,98415.42
2024-04-23T14:35:50.805Z,98413.98
2024-04-23T14:38:38.747Z,98417.02
2024-04-23T14:41:26.558Z,98412.38
2024-04-23T14:44:15.037Z,98410.52
2024-04-23T14:47:04.147Z,98407.84
2024-04-23T14:49:51.899Z,98402.59
2024-04-23T14:52:40.209Z,98397.80
2024-04-23T14:55:28.297Z,98399.63
2024-04-23T14:58:15.824Z,98394.90
2024-04-23T15:01:13.934Z,98395.77
2024-04-23T15:04:04.862Z,98391.63
2024-04-23T15:06:54.416Z,98386.40
2024-04-23T15:09:42.121Z,98390.20
2024-04-23T15:12:30.377Z,98385.58
2024-04-23T15:15:18.141Z,98390.27
2024-04-23T15:18:06.268Z,98387.14
2024-04-23T15:20:54.421Z,98384.58
2024-04-23T15:23:42.297Z,98384.40
2024-04-23T15:26:30.109Z,98379.67
2024-04-23T15:29:18.062Z,98381.87
2024-04-23T15:32:07.082Z,98377.47
2024-04-23T15:34:55.139Z,98377.12
2024-04-23T15:37:42.975Z,98370.76
2024-04-23T15:40:31.036Z,98364.90
2024-04-23T15:43:18.928Z,98360.75
2024-04-23T15:46:16.717Z,98358.86
2024-04-23T15:49:04.378Z,98359.39
2024-04-23T15:51:52.070Z,98353.52
2024-04-23T15:54:40.336Z,98347.84
2024-04-23T15:57:28.179Z,98343.02
2024-04-23T16:00:16.702Z,98332.20
2024-04-23T16:03:05.478Z,98331.82
2024-04-23T16:05:53.196Z,98327.70
2024-04-23T16:08:41.355Z,98324.58
2024-04-23T16:11:29.076Z,98321.95
2024-04-23T16:14:16.945Z,98322.35
2024-04-23T16:17:04.882Z,98319.73
2024-04-23T16:19:52.986Z,98317.80
2024-04-23T16:22:41.162Z,98310.77
2024-04-23T16:25:28.905Z,98306.84
2024-04-23T16:28:17.952Z,98306.58
2024-04-23T16:31:08.113Z,98302.01
2024-04-23T16:33:55.662Z,98297.98
2024-04-23T16:36:43.741Z,98296.89
2024-04-23T16:39:31.442Z,98291.84
2024-04-23T16:42:19.284Z,98287.89
2024-04-23T16:45:07.345Z,98290.32
2024-04-23T16:47:55.611Z,98287.47
2024-04-23T16:50:51.426Z,98285.14
2024-04-23T16:53:40.145Z,98287.44
2024-04-23T16:56:28.502Z,98286.05
2024-04-23T16:59:18.267Z,98284.27
2024-04-23T17:02:06.695Z,98286.41
2024-04-23T17:04:57.170Z,98290.44
2024-04-23T17:07:46.757Z,98291.07
2024-04-23T17:10:34.761Z,98291.30
2024-04-23T17:13:22.425Z,98285.06
2024-04-23T17:16:15.360Z,98279.61
2024-04-23T17:19:03.318Z,98276.48
2024-04-23T17:21:51.964Z,98282.97
2024-04-23T17:24:40.273Z,98280.30
2024-04-23T17:27:28.022Z,98284.58
2024-04-23T17:30:16.818Z,98284.95
2024-04-23T17:33:06.587Z,98287.46
2024-04-23T17:35:59.008Z,98284.60
2024-04-23T17:38:50.118Z,98280.25
2024-04-23T17:41:42.391Z,98268.08
2024-04-23T17:44:30.550Z,98265.66
2024-04-23T17:47:18.954Z,98273.39
2024-04-23T17:50:09.940Z,98279.41
2024-04-23T17:52:58.090Z,98279.91
2024-04-23T17:55:46.637Z,98277.82
2024-04-23T17:58:35.476Z,98275.01
2024-04-23T18:01:23.578Z,98274.98
2024-04-23T18:04:11.372Z,98272.95
2024-04-23T18:06:59.275Z,98267.79
2024-04-23T18:09:46.917Z,98267.98
2024-04-23T18:12:35.235Z,98265.48
2024-04-23T18:15:22.990Z,98263.45
2024-04-23T18:18:11.099Z,98262.81
2024-04-23T18:21:00.699Z,98262.20
2024-04-23T18:23:49.745Z,98261.90
2024-04-23T18:26:37.994Z,98263.30
2024-04-23T18:29:25.923Z,98263.60
2024-04-23T18:32:15.298Z,98260.55
2024-04-23T18:35:03.393Z,98257.64
2024-04-23T18:37:51.734Z,98259.20
2024-04-23T18:40:39.685Z,98254.37
2024-04-23T18:43:28.762Z,98255.58
2024-04-23T18:46:17.779Z,98254.59
2024-04-23T18:49:06.374Z,98259.77
2024-04-23T18:51:54.301Z,98254.17
2024-04-23T18:54:44.703Z,98250.21
2024-04-23T18:57:33.255Z,98250.48
2024-04-23T19:00:21.222Z,98246.58
2024-04-23T19:03:11.624Z,98249.84
2024-04-23T19:06:15.250Z,98247.76
2024-04-23T19:09:03.331Z,98244.85
2024-04-23T19:11:51.116Z,98243.70
2024-04-23T19:14:38.996Z,98240.20
2024-04-23T19:17:28.115Z,98238.94
2024-04-23T19:20:17.005Z,98238.86
2024-04-23T19:23:04.678Z,98232.79
2024-04-23T19:25:52.726Z,98231.42
2024-04-23T19:28:40.304Z,98228.48
2024-04-23T19:31:28.359Z,98220.58
2024-04-23T19:34:17.339Z,98218.50
2024-04-23T19:37:05.569Z,98219.73
2024-04-23T19:39:57.743Z,98213.20
2024-04-23T19:42:45.540Z,98211.10
2024-04-23T19:45:34.469Z,98209.55
2024-04-23T19:48:22.447Z,98202.52
2024-04-23T19:51:15.138Z,98195.31
2024-04-23T19:54:02.977Z,98193.33
2024-04-23T19:56:50.983Z,98187.18
2024-04-23T19:59:39.643Z,98180.08
2024-04-23T20:02:27.566Z,98176.67
2024-04-23T20:05:17.894Z,98174.59
2024-04-23T20:08:05.917Z,98176.21
2024-04-23T20:10:54.309Z,98173.30
2024-04-23T20:13:42.583Z,98167.49
2024-04-23T20:16:30.321Z,98162.85
2024-04-23T20:19:18.292Z,98155.27
2024-04-23T20:22:08.597Z,98152.60
2024-04-23T20:24:57.146Z,98151.27
2024-04-23T20:27:45.085Z,98144.09
2024-04-23T20:30:33.118Z,98146.33
2024-04-23T20:33:21.141Z,98149.84
2024-04-23T20:36:10.097Z,98149.60
2024-04-23T20:38:57.483Z,98147.41
2024-04-23T20:41:45.605Z,98142.13
2024-04-23T20:44:33.740Z,98140.47
2024-04-23T20:47:21.596Z,98138.90
2024-04-23T20:50:10.253Z,98139.43
2024-04-23T20:52:58.505Z,98136.81
2024-04-23T20:55:46.751Z,98133.48
2024-04-23T20:58:34.924Z,98128.85
2024-04-23T21:01:22.996Z,98125.33
2024-04-23T21:04:13.979Z,98123.23
2024-04-23T21:07:02.127Z,98121.84
2024-04-23T21:09:50.163Z,98121.08
2024-04-23T21:12:37.699Z,98117.66
2024-04-23T21:15:25.567Z,98116.44
2024-04-23T21:18:13.482Z,98107.98
2024-04-23T21:21:01.140Z,98106.73
2024-04-23T21:23:48.770Z,98101.86
2024-04-23T21:26:36.718Z,98110.91
2024-04-23T21:29:24.667Z,98105.70
2024-04-23T21:32:12.674Z,98105.52
2024-04-23T21:35:00.840Z,98101.92
2024-04-23T21:37:49.315Z,98101.22
2024-04-23T21:40:37.127Z,98099.38
2024-04-23T21:43:24.862Z,98101.29
2024-04-23T21:46:15.706Z,98099.05
2024-04-23T21:49:03.481Z,98100.05
2024-04-23T21:52:15.693Z,98096.82
2024-04-23T21:54:59.756Z,98093.65
2024-04-23T21:57:47.715Z,98093.17
2024-04-23T22:00:35.624Z,98090.95
2024-04-23T22:03:23.453Z,98089.23
2024-04-23T22:06:11.967Z,98090.55
2024-04-23T22:08:59.890Z,98084.45
2024-04-23T22:11:47.868Z,98083.79
2024-04-23T22:14:35.799Z,98076.16
2024-04-23T22:17:23.880Z,98072.45
2024-04-23T22:20:12.076Z,98069.44
2024-04-23T22:23:00.162Z,98063.58
2024-04-23T22:25:48.041Z,98051.48
2024-04-23T22:28:35.924Z,98050.41
2024-04-23T22:31:23.847Z,98046.66
2024-04-23T22:34:11.474Z,98044.51
2024-04-23T22:36:59.472Z,98038.42
2024-04-23T22:39:48.138Z,98032.64
2024-04-23T22:42:40.605Z,98029.12
2024-04-23T22:45:29.645Z,98021.71
2024-04-23T22:48:17.542Z,98017.53
2024-04-23T22:51:05.774Z,98012.48
2024-04-23T22:53:53.866Z,98008.58
2024-04-23T22:56:42.148Z,98005.73
2024-04-23T22:59:30.017Z,98005.50
2024-04-23T23:02:17.808Z,98006.19
2024-04-23T23:05:06.473Z,97999.88
2024-04-23T23:07:54.279Z,97988.06
2024-04-23T23:10:42.031Z,97980.96
2024-04-23T23:13:30.313Z,97977.91
2024-04-23T23:16:18.172Z,97973.00
2024-04-23T23:19:05.911Z,97969.16
2024-04-23T23:21:53.395Z,97961.93
2024-04-23T23:24:41.365Z,97963.58
2024-04-23T23:27:31.013Z,97952.52
2024-04-23T23:30:19.029Z,97950.48
2024-04-23T23:33:07.260Z,97943.42
2024-04-23T23:35:55.225Z,97942.59
2024-04-23T23:38:43.212Z,97936.86
2024-04-23T23:41:31.722Z,97931.32
2024-04-23T23:44:19.907Z,97930.35
2024-04-23T23:47:07.781Z,97927.34
2024-04-23T23:49:55.505Z,97921.20
2024-04-23T23:52:43.304Z,97920.05
2024-04-23T23:55:31.250Z,97911.36
2024-04-23T23:58:19.134Z,97905.10
